Time;durP1;ratioP1;P1;durP2;ratioP2;P2;SDS_P1;SDS_P2;PMS_P1;PMS_P2;Temp;Humidity;BMP_temperature;BMP_pressure;BME280_temperature;BME280_humidity;BME280_pressure;Samples;Min_cycle;Max_cycle;Signal;HPM_P1;HPM_P2
2022/02/04 00:04:59;;;;;;;25.00;19.17;;;7.00;99.90;;;;;;4907534;29;20254;-83
2022/02/04 00:20:03;;;;;;;28.02;19.17;;;7.00;99.90;;;;;;4894494;29;20200;-83
2022/02/04 00:21:19;;;;;;;25.13;18.52;;;7.00;99.90;;;;;;4901691;29;20567;-84
2022/02/04 00:23:40;;;;;;;28.63;20.10;;;7.60;99.90;;;;;;4905358;29;20207;-84
2022/02/04 00:26:15;;;;;;;25.15;16.60;;;7.10;99.90;;;;;;4902908;29;20185;-84
2022/02/04 00:31:55;;;;;;;27.63;18.40;;;7.10;99.90;;;;;;4911720;29;20227;-86
2022/02/04 00:33:57;;;;;;;25.38;17.17;;;7.10;99.90;;;;;;4910579;29;20275;-86
2022/02/04 00:36:31;;;;;;;21.95;16.80;;;7.20;99.90;;;;;;4881656;29;20714;-86
2022/02/04 00:38:58;;;;;;;29.27;18.63;;;7.20;99.90;;;;;;4909424;29;20624;-86
2022/02/04 00:41:28;;;;;;;30.58;20.73;;;7.20;99.90;;;;;;4906612;29;20230;-86
2022/02/04 00:43:56;;;;;;;22.33;13.75;;;7.30;99.90;;;;;;4913551;29;20188;-86
2022/02/04 00:46:39;;;;;;;20.38;15.88;;;7.40;99.90;;;;;;4906898;29;20200;-84
2022/02/04 00:54:29;;;;;;;22.63;16.80;;;7.60;99.90;;;;;;4906345;29;20193;-85
2022/02/04 01:55:35;;;;;;;19.45;16.58;;;7.50;99.90;;;;;;4872828;29;20212;-84
2022/02/04 02:02:23;;;;;;;;;;;;;;;;;;;;;
2022/02/04 02:05:04;;;;;;;20.98;17.15;;;7.30;99.90;;;;;;4782727;29;20201;-84
2022/02/04 02:08:31;;;;;;;24.83;16.42;;;7.30;99.90;;;;;;4791322;29;20208;-85
2022/02/04 02:11:06;;;;;;;19.08;14.05;;;6.70;99.90;;;;;;4785089;29;20204;-85
2022/02/04 02:13:49;;;;;;;21.13;15.15;;;7.30;99.90;;;;;;4883937;29;20362;-85
2022/02/04 03:12:31;;;;;;;;;;;;;;;;;;;;;
2022/02/04 03:36:54;;;;;;;11.43;10.23;;;7.40;99.90;;;;;;4700643;30;20693;-85
2022/02/04 03:40:10;;;;;;;8.60;7.45;;;7.40;99.90;;;;;;4706373;30;20264;-85
2022/02/04 03:49:21;;;;;;;11.10;10.00;;;7.60;99.90;;;;;;4690821;30;20203;-85
2022/02/04 03:52:29;;;;;;;10.13;9.13;;;7.60;99.90;;;;;;4724397;30;20201;-85
2022/02/04 04:06:59;;;;;;;8.48;7.68;;;7.50;99.90;;;;;;5000691;23;20227;-85
2022/02/04 04:11:58;;;;;;;8.93;8.00;;;7.60;99.90;;;;;;4942578;23;20781;-85
2022/02/04 04:14:23;;;;;;;8.63;7.68;;;7.60;99.90;;;;;;4890203;29;20208;-85
2022/02/04 04:16:52;;;;;;;8.90;7.53;;;7.60;99.90;;;;;;4878856;29;20601;-86
2022/02/04 04:19:18;;;;;;;9.15;8.30;;;7.50;99.90;;;;;;4902878;29;20187;-86
2022/02/04 04:21:51;;;;;;;10.03;8.90;;;7.60;99.90;;;;;;4876295;29;20210;-87
2022/02/04 04:27:11;;;;;;;9.90;8.95;;;7.50;99.90;;;;;;4898469;29;20246;-85
2022/02/04 04:37:41;;;;;;;8.43;7.43;;;7.60;99.90;;;;;;4828869;29;20291;-85
2022/02/04 04:41:01;;;;;;;8.82;8.13;;;7.50;99.90;;;;;;4812087;29;20282;-85
2022/02/04 04:44:26;;;;;;;8.07;7.15;;;7.40;99.90;;;;;;4801111;29;20245;-87
2022/02/04 05:29:20;;;;;;;5.82;5.38;;;7.70;99.90;;;;;;4895420;29;20247;-84
2022/02/04 05:32:04;;;;;;;6.60;6.20;;;7.70;99.90;;;;;;4877446;29;20195;-85
2022/02/04 05:34:38;;;;;;;5.60;5.20;;;7.70;99.90;;;;;;4882791;29;20309;-86
2022/02/04 05:37:06;;;;;;;6.60;6.00;;;7.70;99.90;;;;;;4868789;29;20207;-85
2022/02/04 05:39:39;;;;;;;4.80;4.50;;;7.70;99.90;;;;;;4896955;29;20216;-85
2022/02/04 05:42:11;;;;;;;5.55;5.15;;;7.70;99.90;;;;;;4882342;29;20185;-86
2022/02/04 05:44:43;;;;;;;6.63;6.18;;;7.70;99.90;;;;;;4889063;29;20678;-86
2022/02/04 05:47:16;;;;;;;6.38;5.82;;;7.60;99.90;;;;;;4895276;29;20502;-85
2022/02/04 05:49:50;;;;;;;5.57;4.88;;;8.60;99.90;;;;;;4891499;29;20635;-87
2022/02/04 05:52:23;;;;;;;6.82;6.32;;;7.70;99.90;;;;;;4873833;29;20204;-86
2022/02/04 05:55:04;;;;;;;6.47;5.45;;;7.60;99.90;;;;;;4891978;29;20264;-83
2022/02/04 05:58:24;;;;;;;6.15;5.72;;;7.80;99.90;;;;;;4869005;29;20486;-84
2022/02/04 06:03:43;;;;;;;4.93;4.63;;;7.80;99.90;;;;;;4872444;29;20775;-86
2022/02/04 06:27:12;;;;;;;;;;;;;;;;;;;;;
2022/02/04 06:29:38;;;;;;;13.77;5.13;;;7.90;99.90;;;;;;4940274;29;20191;-81
2022/02/04 06:32:07;;;;;;;5.53;5.20;;;7.80;99.90;;;;;;4953420;29;20640;-85
2022/02/04 06:35:01;;;;;;;5.22;4.75;;;7.90;99.90;;;;;;4926869;29;20433;-85
2022/02/04 06:38:07;;;;;;;7.90;4.00;;;7.80;99.90;;;;;;4935282;29;20215;-85
2022/02/04 06:41:05;;;;;;;5.65;5.35;;;7.80;99.90;;;;;;4954505;29;20197;-86
2022/02/04 06:43:31;;;;;;;5.00;4.70;;;7.90;99.90;;;;;;4936588;29;20254;-85
2022/02/04 06:46:00;;;;;;;4.20;4.00;;;8.00;99.90;;;;;;4919992;29;20202;-85
2022/02/04 06:48:26;;;;;;;3.75;3.60;;;7.90;99.90;;;;;;4945617;29;20289;-84
2022/02/04 06:50:52;;;;;;;5.03;4.63;;;7.90;99.90;;;;;;4948458;29;20214;-85
2022/02/04 06:53:21;;;;;;;4.90;4.60;;;8.00;99.90;;;;;;4916565;29;20440;-85
2022/02/04 06:56:03;;;;;;;4.97;4.63;;;7.90;99.90;;;;;;4947693;29;20182;-86
2022/02/04 06:59:20;;;;;;;5.77;5.00;;;7.90;99.90;;;;;;4596107;29;10000544;-85
2022/02/04 07:02:03;;;;;;;5.25;4.68;;;7.90;99.90;;;;;;4865009;29;20191;-86
2022/02/04 07:05:08;;;;;;;5.47;4.90;;;7.80;99.90;;;;;;4945103;29;20213;-84
2022/02/04 07:08:20;;;;;;;4.68;4.38;;;7.80;99.90;;;;;;4923048;29;20208;-88
2022/02/04 07:16:38;;;;;;;3.97;3.78;;;7.80;99.90;;;;;;4944649;28;20197;-85
2022/02/04 07:21:54;;;;;;;3.17;3.08;;;8.00;99.90;;;;;;4935768;29;20250;-85
2022/02/04 07:24:20;;;;;;;4.18;3.97;;;7.90;99.90;;;;;;4921872;29;20973;-86
2022/02/04 07:27:16;;;;;;;3.63;3.33;;;7.80;99.90;;;;;;4943452;29;20187;-84
2022/02/04 07:29:45;;;;;;;2.15;2.05;;;;;;;;;;5001147;23;20538;-88
2022/02/04 07:32:18;;;;;;;4.05;3.85;;;8.20;99.90;;;;;;4928519;29;20544;-82
2022/02/04 07:43:04;;;;;;;5.88;4.15;;;8.00;99.90;;;;;;4879227;29;20190;-90
2022/02/04 07:45:33;;;;;;;3.67;3.38;;;8.10;99.90;;;;;;4863432;29;20198;-90
2022/02/04 07:48:05;;;;;;;2.13;2.03;;;8.00;99.90;;;;;;4893878;29;20188;-90
2022/02/04 07:50:31;;;;;;;2.97;2.97;;;8.10;99.90;;;;;;4910486;29;20183;-89
2022/02/04 07:53:00;;;;;;;3.40;3.30;;;8.10;99.90;;;;;;4935366;29;20191;-90
2022/02/04 07:55:29;;;;;;;2.63;2.55;;;8.20;99.90;;;;;;4926817;29;20218;-90
2022/02/04 07:57:55;;;;;;;3.20;3.10;;;8.20;99.90;;;;;;4918601;29;20222;-85
2022/02/04 08:00:24;;;;;;;3.57;3.47;;;8.00;99.90;;;;;;4922395;29;20210;-86
2022/02/04 08:02:55;;;;;;;3.13;2.92;;;8.10;99.90;;;;;;4934740;29;20195;-89
2022/02/04 08:05:27;;;;;;;4.10;3.90;;;8.30;99.90;;;;;;4931994;29;20660;-88
2022/02/04 08:08:03;;;;;;;3.55;3.28;;;8.40;99.90;;;;;;4959045;29;20197;-85
2022/02/04 08:10:46;;;;;;;3.22;3.13;;;8.30;99.90;;;;;;4904128;29;20543;-88
2022/02/04 08:16:16;;;;;;;3.30;3.20;;;8.30;99.90;;;;;;4939192;29;20736;-90
2022/02/04 08:19:09;;;;;;;3.95;3.67;;;8.40;99.90;;;;;;4928859;29;20619;-87
2022/02/04 08:30:11;;;;;;;3.40;3.30;;;8.30;99.90;;;;;;4915509;29;20504;-87
2022/02/04 08:32:30;;;;;;;2.97;2.97;;;8.30;99.90;;;;;;4900313;29;20215;-88
2022/02/04 08:53:34;;;;;;;4.20;4.00;;;8.30;99.90;;;;;;4917763;29;20192;-89
2022/02/04 08:55:56;;;;;;;3.63;3.53;;;8.50;99.90;;;;;;4903159;29;20195;-88
2022/02/04 08:58:36;;;;;;;3.80;3.60;;;;;;;;;;4894383;29;20773;-89
2022/02/04 09:01:14;;;;;;;8.80;3.45;;;8.50;99.90;;;;;;4904614;29;20184;-90
2022/02/04 09:06:13;;;;;;;3.80;3.60;;;8.40;99.90;;;;;;4922572;29;20208;-87
2022/02/04 09:08:44;;;;;;;3.65;3.55;;;8.30;99.90;;;;;;4919918;29;20198;-86
2022/02/04 09:11:15;;;;;;;3.50;3.40;;;8.30;99.90;;;;;;4919537;29;20169;-88
2022/02/04 09:19:19;;;;;;;2.97;2.88;;;8.10;99.90;;;;;;4901167;29;20228;-88
2022/02/04 09:24:15;;;;;;;4.07;3.88;;;8.10;99.90;;;;;;4919514;29;20207;-87
2022/02/04 09:26:41;;;;;;;4.43;4.20;;;8.40;99.90;;;;;;4920486;29;20172;-89
2022/02/04 09:29:06;;;;;;;4.70;4.40;;;8.00;99.90;;;;;;4892886;29;20208;-85
2022/02/04 09:31:34;;;;;;;3.60;3.40;;;7.90;99.90;;;;;;4882495;29;20552;-86
2022/02/04 09:33:59;;;;;;;4.38;4.03;;;8.00;99.90;;;;;;4896016;29;20173;-87
2022/02/04 09:36:25;;;;;;;4.37;4.10;;;7.90;99.90;;;;;;4900214;29;20191;-85
2022/02/04 09:38:50;;;;;;;3.77;3.57;;;7.80;99.90;;;;;;4884068;29;20211;-89
2022/02/04 09:41:21;;;;;;;4.10;3.90;;;7.90;99.90;;;;;;4917416;29;20247;-86
2022/02/04 09:43:48;;;;;;;4.65;4.45;;;8.00;99.90;;;;;;4905515;29;20209;-85
2022/02/04 09:46:14;;;;;;;4.18;3.97;;;7.70;99.90;;;;;;4922379;29;20200;-83
2022/02/04 09:48:43;;;;;;;3.40;3.30;;;7.60;99.90;;;;;;4934034;29;20347;-84
2022/02/04 09:51:14;;;;;;;4.97;4.68;;;7.70;99.90;;;;;;4917265;29;20180;-87
2022/02/04 10:05:17;;;;;;;5.18;4.78;;;7.90;99.90;;;;;;4915108;29;20359;-86
2022/02/04 10:15:43;;;;;;;5.15;4.93;;;8.10;99.90;;;;;;4916426;29;20207;-89
2022/02/04 10:18:15;;;;;;;4.28;3.97;;;8.20;99.90;;;;;;4910647;29;20479;-89
2022/02/04 10:20:42;;;;;;;6.50;4.88;;;8.20;99.90;;;;;;4915891;29;20192;-89
2022/02/04 10:23:12;;;;;;;4.57;4.32;;;8.40;99.90;;;;;;4901282;29;20446;-88
2022/02/04 10:25:41;;;;;;;4.68;4.38;;;8.40;99.90;;;;;;4905234;29;20211;-83
2022/02/04 10:28:32;;;;;;;12.55;5.85;;;7.90;99.90;;;;;;4914322;29;20737;-87
2022/02/04 10:31:19;;;;;;;3.97;3.67;;;9.10;99.90;;;;;;4897331;29;20223;-92
2022/02/04 10:33:52;;;;;;;3.15;3.05;;;8.30;99.90;;;;;;4900745;29;20192;-85
2022/02/04 10:36:48;;;;;;;3.20;3.10;;;9.00;99.90;;;;;;4929032;29;20179;-83
2022/02/04 10:42:21;;;;;;;2.97;2.88;;;8.60;99.90;;;;;;4898436;29;20481;-82
2022/02/04 10:45:09;;;;;;;6.72;2.40;;;8.60;99.90;;;;;;4886245;29;20177;-86
2022/02/04 10:48:31;;;;;;;2.38;2.28;;;8.50;99.90;;;;;;4223548;29;10000558;-82
2022/02/04 10:59:10;;;;;;;1.90;1.90;;;8.60;99.90;;;;;;4896402;29;20274;-89
2022/02/04 11:04:37;;;;;;;2.10;2.10;;;8.60;99.90;;;;;;4918098;29;20277;-81
2022/02/04 11:35:31;;;;;;;1.10;1.10;;;9.60;99.90;;;;;;4908397;29;20577;-89
2022/02/04 11:44:32;;;;;;;1.33;1.33;;;9.40;99.90;;;;;;4923459;29;20199;-90
2022/02/04 11:52:38;;;;;;;1.65;1.17;;;9.30;99.90;;;;;;4898454;29;20173;-88
2022/02/04 11:55:10;;;;;;;1.20;1.20;;;9.20;99.90;;;;;;4902345;29;20223;-88
2022/02/04 11:57:39;;;;;;;1.10;1.10;;;9.10;99.90;;;;;;4899455;29;20222;-88
2022/02/04 12:00:19;;;;;;;0.60;0.60;;;9.00;99.90;;;;;;4898901;29;20476;-86
2022/02/04 12:02:50;;;;;;;0.70;0.70;;;9.00;99.90;;;;;;4908502;29;20479;-86
2022/02/04 12:05:18;;;;;;;0.90;0.90;;;8.80;99.90;;;;;;4893141;29;20222;-88
2022/02/04 12:07:44;;;;;;;1.08;1.00;;;8.80;99.90;;;;;;4904060;29;20196;-89
2022/02/04 12:10:13;;;;;;;0.87;0.87;;;8.90;99.90;;;;;;4918702;29;20239;-90
2022/02/04 12:12:54;;;;;;;0.60;0.60;;;9.20;99.90;;;;;;4918044;29;20222;-89
2022/02/04 12:15:31;;;;;;;0.52;0.52;;;8.80;99.90;;;;;;4917474;29;20288;-88
2022/02/04 12:17:59;;;;;;;0.95;0.95;;;8.90;99.90;;;;;;4908864;29;20231;-88
2022/02/04 12:20:44;;;;;;;0.75;0.60;;;9.00;99.90;;;;;;4904062;29;20243;-88
2022/02/04 12:23:34;;;;;;;1.00;1.00;;;9.00;99.90;;;;;;4917922;29;20200;-85
2022/02/04 12:26:12;;;;;;;1.48;1.02;;;9.10;99.90;;;;;;4881460;29;20440;-82
2022/02/04 12:29:03;;;;;;;0.88;0.88;;;9.20;99.90;;;;;;4908534;29;20179;-87
2022/02/04 12:31:45;;;;;;;1.10;1.10;;;9.30;99.90;;;;;;4899741;29;20224;-84
2022/02/04 12:34:22;;;;;;;1.45;1.42;;;8.90;99.90;;;;;;4903755;29;20425;-86
2022/02/04 12:36:54;;;;;;;0.85;0.85;;;9.00;99.90;;;;;;4896586;29;20184;-90
2022/02/04 12:39:26;;;;;;;1.55;1.30;;;9.40;99.90;;;;;;4903454;29;20204;-89
2022/02/04 12:42:01;;;;;;;1.15;1.15;;;9.40;99.90;;;;;;4898772;29;20184;-89
2022/02/04 12:44:33;;;;;;;1.15;1.15;;;9.00;99.90;;;;;;4890993;29;20204;-89
2022/02/04 12:47:02;;;;;;;0.82;0.82;;;8.90;99.90;;;;;;4905952;29;20561;-88
2022/02/04 12:49:30;;;;;;;1.35;1.35;;;8.90;99.90;;;;;;4897968;29;20706;-82
2022/02/04 12:52:07;;;;;;;1.95;1.42;;;8.80;99.90;;;;;;4910748;29;20172;-82
2022/02/04 12:54:49;;;;;;;1.20;1.20;;;8.80;99.90;;;;;;4896221;29;20219;-82
2022/02/04 13:08:19;;;;;;;1.35;1.25;;;8.70;99.90;;;;;;4908583;29;20231;-76
2022/02/04 13:10:59;;;;;;;1.50;1.50;;;9.00;99.90;;;;;;4910417;29;20263;-83
2022/02/04 13:13:25;;;;;;;1.25;1.25;;;9.00;99.90;;;;;;4903881;29;20439;-82
2022/02/04 13:15:53;;;;;;;1.47;1.47;;;9.00;99.90;;;;;;4910498;29;20203;-80
2022/02/04 13:18:19;;;;;;;1.95;1.95;;;9.30;99.90;;;;;;4911339;29;20479;-79
2022/02/04 13:20:48;;;;;;;2.70;2.70;;;9.00;99.90;;;;;;4904874;29;20433;-82
2022/02/04 13:23:19;;;;;;;3.07;2.47;;;9.00;99.90;;;;;;4911801;29;20207;-83
2022/02/04 13:25:47;;;;;;;1.95;1.85;;;8.80;99.90;;;;;;4915126;29;20424;-86
2022/02/04 13:28:16;;;;;;;2.28;2.15;;;9.10;99.90;;;;;;4903049;29;20568;-81
2022/02/04 13:31:00;;;;;;;2.30;2.30;;;9.10;99.90;;;;;;4924794;29;20338;-89
2022/02/04 13:33:31;;;;;;;2.35;2.30;;;9.60;99.90;;;;;;4920461;29;20672;-88
2022/02/04 13:36:13;;;;;;;2.15;2.10;;;9.20;99.90;;;;;;4900820;29;20605;-83
2022/02/04 13:41:12;;;;;;;2.33;2.28;;;9.40;99.90;;;;;;4920111;29;20540;-84
2022/02/04 13:49:25;;;;;;;2.05;2.05;;;9.80;99.90;;;;;;4953039;23;20600;-86
2022/02/04 13:52:10;;;;;;;2.03;2.03;;;9.80;99.90;;;;;;4937394;29;20182;-87
2022/02/04 13:57:34;;;;;;;1.27;1.27;;;10.00;99.90;;;;;;4941940;29;20195;-83
2022/02/04 14:02:45;;;;;;;1.60;1.55;;;10.00;99.90;;;;;;4945070;29;20595;-83
2022/02/04 14:05:12;;;;;;;2.92;2.78;;;9.60;99.90;;;;;;4927521;29;20218;-85
2022/02/04 14:07:53;;;;;;;2.10;2.00;;;9.60;99.90;;;;;;4943149;29;20258;-86
2022/02/04 14:10:46;;;;;;;1.75;1.75;;;9.60;99.90;;;;;;4948005;29;20190;-84
2022/02/04 14:13:11;;;;;;;2.08;2.08;;;10.10;99.90;;;;;;4938041;29;20247;-86
2022/02/04 14:15:39;;;;;;;2.08;2.08;;;9.20;99.90;;;;;;4937395;29;20190;-84
2022/02/04 14:18:09;;;;;;;2.65;2.10;;;9.00;99.90;;;;;;4933553;29;20364;-86
2022/02/04 14:20:37;;;;;;;1.45;1.45;;;9.20;99.90;;;;;;4920819;29;20608;-85
2022/02/04 14:23:04;;;;;;;1.92;1.55;;;10.00;99.90;;;;;;4935295;29;20203;-86
2022/02/04 14:25:31;;;;;;;1.33;1.33;;;9.00;99.90;;;;;;4937513;29;20190;-86
2022/02/04 14:28:00;;;;;;;1.17;1.17;;;8.90;99.90;;;;;;4943048;29;20182;-86
2022/02/04 14:30:35;;;;;;;2.10;2.00;;;8.90;99.90;;;;;;4940701;29;20404;-84
2022/02/04 14:34:08;;;;;;;2.08;2.00;;;9.10;99.90;;;;;;4936519;29;20781;-87
2022/02/04 14:36:05;;;;;;;2.38;1.67;;;9.10;99.90;;;;;;4952557;29;20183;-89
2022/02/04 15:02:59;;;;;;;1.98;1.95;;;8.40;99.90;;;;;;4930703;29;20276;-85
2022/02/04 15:05:36;;;;;;;3.30;2.08;;;8.20;99.90;;;;;;4914985;29;20176;-84
2022/02/04 15:08:06;;;;;;;2.72;2.28;;;8.30;99.90;;;;;;4895466;29;20180;-84
2022/02/04 15:10:32;;;;;;;1.67;1.58;;;8.20;99.90;;;;;;4931494;29;20268;-85
2022/02/04 15:13:00;;;;;;;2.20;2.10;;;8.20;99.90;;;;;;4912699;29;20192;-85
2022/02/04 15:15:26;;;;;;;1.70;1.70;;;8.20;99.90;;;;;;4933982;29;20211;-84
2022/02/04 15:17:55;;;;;;;1.70;1.60;;;8.30;99.90;;;;;;4913167;29;20219;-86
2022/02/04 15:20:20;;;;;;;2.95;2.80;;;8.30;99.90;;;;;;4911473;29;20439;-82
2022/02/04 15:22:46;;;;;;;1.60;1.50;;;8.30;99.90;;;;;;4919000;29;20614;-84
2022/02/04 15:25:19;;;;;;;2.93;2.83;;;;;;;;;;4930167;29;20408;-85
2022/02/04 15:27:57;;;;;;;1.60;1.60;;;8.50;99.90;;;;;;4914351;29;20297;-85
2022/02/04 15:30:29;;;;;;;2.22;1.74;;;8.20;99.90;;;;;;4579013;29;10000674;-86
2022/02/04 15:32:58;;;;;;;1.63;1.52;;;7.90;99.90;;;;;;4917549;29;20494;-84
2022/02/04 15:35:24;;;;;;;1.90;1.80;;;8.20;99.90;;;;;;4907299;29;20190;-85
2022/02/04 15:37:51;;;;;;;0.65;0.65;;;8.00;99.90;;;;;;4920075;29;20307;-87
2022/02/04 15:40:18;;;;;;;2.58;2.05;;;8.60;99.90;;;;;;4910359;29;20628;-85
2022/02/04 15:42:52;;;;;;;2.75;2.25;;;8.00;99.90;;;;;;4911784;29;20263;-85
2022/02/04 15:58:41;;;;;;;1.42;1.25;;;7.70;99.90;;;;;;4915674;29;20246;-84
2022/02/04 16:01:22;;;;;;;3.30;1.70;;;7.60;99.90;;;;;;4906911;29;20205;-85
2022/02/04 16:06:21;;;;;;;5.00;1.30;;;7.80;99.90;;;;;;4929303;29;20191;-85
2022/02/04 16:08:49;;;;;;;1.92;1.83;;;7.50;99.90;;;;;;4916800;29;20259;-85
2022/02/04 16:14:23;;;;;;;3.25;2.20;;;7.80;99.90;;;;;;4865247;29;20884;-83
2022/02/04 16:16:58;;;;;;;0.95;0.95;;;7.60;99.90;;;;;;4915596;29;20194;-85
2022/02/04 16:24:42;;;;;;;0.90;0.90;;;7.50;99.90;;;;;;4918182;29;20317;-85
2022/02/04 16:29:40;;;;;;;4.32;2.35;;;8.00;99.90;;;;;;4922839;29;20186;-85
2022/02/04 16:32:07;;;;;;;1.50;1.27;;;7.50;99.90;;;;;;4917019;29;20214;-84
2022/02/04 16:34:36;;;;;;;2.63;2.63;;;7.40;99.90;;;;;;4926339;29;20227;-85
2022/02/04 16:37:42;;;;;;;2.65;2.00;;;7.70;99.90;;;;;;4904999;29;20204;-84
2022/02/04 16:40:20;;;;;;;1.70;1.70;;;7.60;99.90;;;;;;4927338;29;20218;-83
2022/02/04 16:42:46;;;;;;;3.30;3.20;;;7.30;99.90;;;;;;4905875;29;20199;-83
2022/02/04 16:45:11;;;;;;;5.40;4.13;;;7.30;99.90;;;;;;4920648;29;20274;-84
2022/02/04 16:47:37;;;;;;;3.40;3.20;;;7.30;99.90;;;;;;4902910;29;20707;-84
2022/02/04 16:50:04;;;;;;;3.20;3.20;;;7.50;99.90;;;;;;4916223;29;20219;-85
2022/02/04 16:52:30;;;;;;;1.92;1.92;;;7.30;99.90;;;;;;4926699;29;20274;-85
2022/02/04 16:54:58;;;;;;;1.60;1.58;;;6.80;99.90;;;;;;4915670;29;20202;-84
2022/02/04 16:57:24;;;;;;;1.00;1.00;;;7.20;99.90;;;;;;4914082;29;20212;-85
2022/02/04 16:59:56;;;;;;;1.85;1.85;;;6.40;99.90;;;;;;4911447;29;20188;-85
2022/02/04 17:02:25;;;;;;;16.13;8.27;;;6.00;99.90;;;;;;4927451;29;20242;-85
2022/02/04 17:04:52;;;;;;;4.82;3.20;;;;;;;;;;4915110;29;20194;-84
2022/02/04 17:07:28;;;;;;;2.15;2.05;;;;;;;;;;4913914;29;20558;-83
2022/02/04 17:09:55;;;;;;;1.88;1.88;;;;;;;;;;4931330;29;20178;-84
2022/02/04 17:12:30;;;;;;;2.47;2.35;;;;;;;;;;4912728;29;20295;-85
2022/02/04 17:14:56;;;;;;;1.80;1.80;;;;;;;;;;4895358;29;20203;-87
2022/02/04 17:17:24;;;;;;;2.22;2.22;;;;;;;;;;4909294;29;20194;-85
2022/02/04 17:20:05;;;;;;;2.70;2.70;;;;;;;;;;4931424;29;20187;-86
2022/02/04 17:22:35;;;;;;;2.03;2.03;;;;;;;;;;4911714;29;20250;-85
2022/02/04 17:25:08;;;;;;;2.60;2.60;;;;;;;;;;4910813;29;20439;-82
2022/02/04 17:27:38;;;;;;;2.65;2.55;;;;;;;;;;4927182;29;20198;-83
2022/02/04 17:30:08;;;;;;;2.30;2.30;;;;;;;;;;4935423;29;20187;-87
2022/02/04 17:32:36;;;;;;;3.15;3.15;;;;;;;;;;4914404;29;20196;-86
2022/02/04 17:35:02;;;;;;;4.75;4.65;;;;;;;;;;4932933;29;20190;-86
2022/02/04 17:37:28;;;;;;;4.15;3.95;;;;;;;;;;4912596;29;20219;-87
2022/02/04 17:39:55;;;;;;;3.83;3.72;;;;;;;;;;4894811;29;20200;-85
2022/02/04 17:42:26;;;;;;;6.07;5.70;;;;;;;;;;4911954;29;20199;-84
2022/02/04 17:44:55;;;;;;;3.33;3.33;;;;;;;;;;4906628;29;20196;-84
2022/02/04 17:47:25;;;;;;;4.30;4.18;;;;;;;;;;4902881;29;20199;-84
2022/02/04 17:50:06;;;;;;;4.60;4.40;;;;;;;;;;4927718;29;20226;-84
2022/02/04 17:52:45;;;;;;;5.15;4.90;;;;;;;;;;4908175;29;20728;-85
2022/02/04 17:55:19;;;;;;;5.53;5.32;;;;;;;;;;4900832;29;20654;-85
2022/02/04 17:57:54;;;;;;;5.90;5.53;;;;;;;;;;4906255;29;20354;-83
2022/02/04 18:03:24;;;;;;;7.13;6.63;;;;;;;;;;4918665;29;20301;-83
2022/02/04 18:06:15;;;;;;;7.57;7.00;;;;;;;;;;4920138;29;20674;-85
2022/02/04 18:08:41;;;;;;;6.53;6.10;;;;;;;;;;4912205;29;20327;-83
2022/02/04 18:11:07;;;;;;;5.80;5.50;;;;;;;;;;4909214;29;20195;-84
2022/02/04 18:13:33;;;;;;;6.50;6.10;;;;;;;;;;4903903;29;20275;-83
2022/02/04 18:16:06;;;;;;;5.93;5.63;;;;;;;;;;4908102;29;20195;-84
2022/02/04 18:18:49;;;;;;;10.80;7.80;;;;;;;;;;4918182;29;20294;-85
2022/02/04 18:21:19;;;;;;;5.70;4.80;;;;;;;;;;4905039;29;21259;-84
2022/02/04 18:23:52;;;;;;;7.13;6.63;;;;;;;;;;4921660;29;20183;-85
2022/02/04 18:26:18;;;;;;;5.95;5.47;;;;;;;;;;4921731;29;20188;-85
2022/02/04 18:28:44;;;;;;;6.03;5.63;;;;;;;;;;4920274;29;20548;-85
2022/02/04 18:31:10;;;;;;;4.77;4.47;;;;;;;;;;4909458;29;20616;-85
2022/02/04 18:33:36;;;;;;;3.93;3.83;;;;;;;;;;4906848;29;20626;-83
2022/02/04 18:36:02;;;;;;;4.85;4.55;;;;;;;;;;4907879;29;20434;-85
2022/02/04 18:42:23;;;;;;;5.82;5.30;;;;;;;;;;4875949;29;20200;-86
2022/02/04 18:44:27;;;;;;;4.43;4.13;;;;;;;;;;4914337;29;20276;-84
2022/02/04 18:54:29;;;;;;;4.15;3.80;;;;;;;;;;4919911;29;20243;-84
2022/02/04 18:57:09;;;;;;;3.60;3.50;;;;;;;;;;4908388;29;20195;-85
2022/02/04 18:59:47;;;;;;;4.03;3.83;;;;;;;;;;4920012;29;20206;-85
2022/02/04 19:02:12;;;;;;;3.25;3.20;;;4.90;99.90;;;;;;4906675;29;20206;-82
2022/02/04 19:04:46;;;;;;;3.23;2.93;;;4.80;99.90;;;;;;4920348;29;20184;-81
2022/02/04 19:07:17;;;;;;;4.18;3.85;;;6.00;99.90;;;;;;4908995;29;20206;-80
2022/02/04 19:09:45;;;;;;;1.50;1.50;;;4.70;99.90;;;;;;4920410;29;20286;-81
2022/02/04 19:12:15;;;;;;;2.53;2.40;;;4.60;99.90;;;;;;4916399;29;20308;-81
2022/02/04 19:17:30;;;;;;;3.15;1.77;;;4.60;99.90;;;;;;4916279;29;20250;-82
2022/02/04 19:20:04;;;;;;;3.70;2.35;;;4.60;99.90;;;;;;4901532;29;20282;-82
2022/02/04 19:22:34;;;;;;;3.17;2.67;;;4.50;99.90;;;;;;4914902;29;20641;-82
2022/02/04 19:25:04;;;;;;;2.58;2.35;;;4.20;99.90;;;;;;4909882;29;20796;-82
2022/02/04 19:27:29;;;;;;;3.35;3.10;;;4.30;99.90;;;;;;4913691;29;20241;-82
2022/02/04 19:29:55;;;;;;;3.43;3.33;;;4.30;99.90;;;;;;4911481;29;20192;-82
2022/02/04 19:32:21;;;;;;;2.30;2.20;;;4.50;99.90;;;;;;4922966;29;20241;-81
2022/02/04 19:34:47;;;;;;;2.90;2.58;;;4.10;99.90;;;;;;4918675;29;20523;-82
2022/02/04 19:37:12;;;;;;;3.33;3.10;;;4.10;99.90;;;;;;4918681;29;20294;-81
2022/02/04 19:39:41;;;;;;;3.27;3.07;;;3.70;99.90;;;;;;4918327;29;20216;-82
2022/02/04 19:42:19;;;;;;;5.97;3.92;;;4.20;99.90;;;;;;4915451;29;20205;-82
2022/02/04 19:44:51;;;;;;;4.28;3.97;;;4.20;99.90;;;;;;5008783;23;20205;-84
2022/02/04 19:47:25;;;;;;;6.60;4.82;;;4.30;99.90;;;;;;4931987;29;20192;-84
2022/02/04 19:50:08;;;;;;;5.03;4.70;;;4.20;99.90;;;;;;4914329;29;20211;-84
2022/02/04 20:25:01;;;;;;;5.88;4.05;;;5.20;99.90;;;;;;4933208;29;20261;-84
2022/02/04 20:27:41;;;;;;;5.25;4.60;;;4.10;99.90;;;;;;4912004;29;20335;-84
2022/02/04 20:30:07;;;;;;;4.72;3.60;;;3.50;99.90;;;;;;4926451;29;20193;-84
2022/02/04 20:32:33;;;;;;;2.78;2.65;;;4.50;99.90;;;;;;4931830;29;20258;-85
2022/02/04 20:34:58;;;;;;;4.07;3.80;;;3.70;99.90;;;;;;4926174;29;20202;-83
2022/02/04 20:37:24;;;;;;;2.00;1.90;;;4.30;99.90;;;;;;4932419;29;20179;-84
2022/02/04 20:39:55;;;;;;;4.03;3.83;;;4.10;99.90;;;;;;4918942;29;20199;-84
2022/02/04 20:42:21;;;;;;;7.57;4.30;;;4.30;99.90;;;;;;4909305;29;20294;-84
2022/02/04 20:44:50;;;;;;;3.90;3.50;;;4.00;99.90;;;;;;4916097;29;20451;-85
2022/02/04 20:47:20;;;;;;;4.00;3.70;;;4.10;99.90;;;;;;4935015;29;20188;-84
2022/02/04 20:49:45;;;;;;;3.90;3.58;;;4.20;99.90;;;;;;4914976;29;20206;-84
2022/02/04 20:52:13;;;;;;;3.23;3.03;;;4.10;99.90;;;;;;4936235;29;20187;-85
2022/02/04 20:54:40;;;;;;;2.80;2.70;;;3.90;99.90;;;;;;4917601;29;20450;-85
2022/02/04 20:57:05;;;;;;;5.65;4.38;;;5.20;99.90;;;;;;4926275;29;20764;-87
2022/02/04 20:59:36;;;;;;;4.10;2.93;;;4.20;99.90;;;;;;4949487;29;20532;-86
2022/02/04 21:02:03;;;;;;;4.70;3.05;;;4.30;99.90;;;;;;4929972;29;20194;-86
2022/02/04 21:04:33;;;;;;;2.85;2.70;;;5.30;99.90;;;;;;4950465;29;20213;-85
2022/02/04 21:07:07;;;;;;;5.07;1.63;;;4.20;99.90;;;;;;4949488;29;20185;-86
2022/02/04 21:15:07;;;;;;;8.65;4.10;;;4.80;99.90;;;;;;4938055;29;20341;-86
2022/02/04 21:17:42;;;;;;;6.00;4.32;;;4.00;99.90;;;;;;4928925;29;20190;-86
2022/02/04 21:20:14;;;;;;;6.95;4.20;;;5.20;99.90;;;;;;4915154;29;20736;-87
2022/02/04 21:22:40;;;;;;;4.50;4.10;;;3.90;99.90;;;;;;4922234;29;20187;-85
2022/02/04 21:25:11;;;;;;;7.93;5.17;;;4.20;99.90;;;;;;4919716;29;20210;-85
2022/02/04 21:27:41;;;;;;;3.92;3.63;;;4.30;99.90;;;;;;4919599;29;20832;-85
2022/02/04 21:30:13;;;;;;;7.35;4.10;;;4.20;99.90;;;;;;4940861;29;20202;-84
2022/02/04 21:32:46;;;;;;;4.57;4.38;;;3.50;99.90;;;;;;4917786;29;20214;-84
2022/02/04 21:37:58;;;;;;;8.13;5.30;;;;;;;;;;4939555;29;20217;-84
2022/02/04 21:40:24;;;;;;;8.65;4.45;;;4.10;99.90;;;;;;4922420;29;20282;-84
2022/02/04 21:42:50;;;;;;;7.25;3.92;;;3.70;99.90;;;;;;4925292;29;20187;-83
2022/02/04 21:45:17;;;;;;;7.78;4.38;;;6.80;99.90;;;;;;4932902;29;20630;-83
2022/02/04 21:47:46;;;;;;;8.32;5.55;;;3.90;99.90;;;;;;4932860;29;20187;-83
2022/02/04 21:50:16;;;;;;;11.60;6.07;;;4.00;99.90;;;;;;4923566;29;20249;-83
2022/02/04 21:52:42;;;;;;;9.85;6.10;;;3.90;99.90;;;;;;4935551;29;20183;-83
2022/02/04 21:55:08;;;;;;;13.83;7.27;;;3.90;99.90;;;;;;4923477;29;20641;-84
2022/02/04 21:57:34;;;;;;;9.37;5.57;;;5.60;99.90;;;;;;4941589;29;20430;-84
2022/02/04 22:00:00;;;;;;;7.13;4.50;;;6.10;99.90;;;;;;4922600;29;20198;-83
2022/02/04 22:02:29;;;;;;;8.20;6.13;;;3.90;99.90;;;;;;4943599;29;20249;-83
2022/02/04 22:04:58;;;;;;;6.28;5.78;;;4.00;99.90;;;;;;4947202;29;20202;-85
2022/02/04 22:07:27;;;;;;;8.68;6.45;;;4.00;99.90;;;;;;4937934;29;20190;-85
2022/02/04 22:13:28;;;;;;;10.23;6.05;;;;;;;;;;4941741;29;20194;-83
2022/02/04 22:24:08;;;;;;;9.18;5.40;;;4.80;99.90;;;;;;4935697;29;20214;-84
2022/02/04 22:26:35;;;;;;;7.05;6.45;;;4.00;99.90;;;;;;4922007;29;20516;-83
2022/02/04 22:29:01;;;;;;;9.15;5.93;;;3.00;99.90;;;;;;4936613;28;20266;-83
2022/02/04 22:31:33;;;;;;;6.75;6.25;;;5.60;99.90;;;;;;4934079;29;20692;-84
2022/02/04 22:47:05;;;;;;;7.30;6.60;;;4.60;99.90;;;;;;4938542;29;20231;-80
2022/02/04 23:00:35;;;;;;;3.50;3.40;;;4.70;99.90;;;;;;4917738;29;20191;-80
2022/02/04 23:03:01;;;;;;;9.23;5.72;;;4.60;99.90;;;;;;4931241;29;20167;-81
2022/02/04 23:05:26;;;;;;;5.43;4.93;;;4.60;99.90;;;;;;4907660;29;20206;-80